createdAt,value
2023-04-15T00:00:19.047Z,42.12
2023-04-15T00:01:18.000Z,42.10
2023-04-15T00:02:19.163Z,41.96
2023-04-15T00:03:19.436Z,42.03
2023-04-15T00:04:18.059Z,42.11
2023-04-15T00:05:18.980Z,42.05
2023-04-15T00:06:18.970Z,42.03
2023-04-15T00:07:18.954Z,42.02
2023-04-15T00:08:18.945Z,42.05
2023-04-15T00:09:18.943Z,42.07
2023-04-15T00:10:18.936Z,41.97
2023-04-15T00:11:17.937Z,42.01
2023-04-15T00:12:18.921Z,42.16
2023-04-15T00:13:17.927Z,42.11
2023-04-15T00:14:18.913Z,41.98
2023-04-15T00:15:18.923Z,41.99
2023-04-15T00:16:17.943Z,42.05
2023-04-15T00:17:18.916Z,41.93
2023-04-15T00:18:17.865Z,41.92
2023-04-15T00:19:17.865Z,41.89
2023-04-15T00:20:17.849Z,41.91
2023-04-15T00:21:18.856Z,41.93
2023-04-15T00:22:18.852Z,41.93
2023-04-15T00:23:17.843Z,41.94
2023-04-15T00:24:17.812Z,41.90
2023-04-15T00:25:18.832Z,41.86
2023-04-15T00:26:18.854Z,41.91
2023-04-15T00:27:18.824Z,41.90
2023-04-15T00:28:17.809Z,41.85
2023-04-15T00:29:17.799Z,41.89
2023-04-15T00:30:17.784Z,41.90
2023-04-15T00:31:18.808Z,41.95
2023-04-15T00:32:17.800Z,41.91
2023-04-15T00:33:18.793Z,41.95
2023-04-15T00:34:18.812Z,41.81
2023-04-15T00:35:18.861Z,41.85
2023-04-15T00:36:17.870Z,41.76
2023-04-15T00:37:18.863Z,41.86
2023-04-15T00:38:17.894Z,41.89
2023-04-15T00:39:18.888Z,41.84
2023-04-15T00:40:18.934Z,41.87
2023-04-15T00:41:18.953Z,41.87
2023-04-15T00:42:18.964Z,41.81
2023-04-15T00:43:17.975Z,41.95
2023-04-15T00:44:18.005Z,41.80
2023-04-15T00:45:18.019Z,41.83
2023-04-15T00:46:19.152Z,41.83
2023-04-15T00:47:18.089Z,41.81
2023-04-15T00:48:19.117Z,41.90
2023-04-15T00:49:19.128Z,41.82
2023-04-15T00:50:19.150Z,41.78
2023-04-15T00:51:19.177Z,41.81
2023-04-15T00:52:18.164Z,41.71
2023-04-15T00:53:19.189Z,41.76
2023-04-15T00:54:19.226Z,41.78
2023-04-15T00:55:19.267Z,41.76
2023-04-15T00:56:19.286Z,41.67
2023-04-15T00:57:19.284Z,41.73
2023-04-15T00:58:19.310Z,41.72
2023-04-15T00:59:19.329Z,41.77
2023-04-15T01:00:19.340Z,41.79
2023-04-15T01:01:18.419Z,41.74
2023-04-15T01:02:19.428Z,41.68
2023-04-15T01:03:19.498Z,41.74
2023-04-15T01:04:19.504Z,41.70
2023-04-15T01:05:19.451Z,41.69
2023-04-15T01:06:19.483Z,41.65
2023-04-15T01:07:19.497Z,41.57
2023-04-15T01:08:19.504Z,41.68
2023-04-15T01:09:18.517Z,41.69
2023-04-15T01:10:18.536Z,41.74
2023-04-15T01:11:19.564Z,41.69
2023-04-15T01:12:19.589Z,41.57
2023-04-15T01:13:18.614Z,41.67
2023-04-15T01:14:19.623Z,41.58
2023-04-15T01:15:18.649Z,41.65
2023-04-15T01:16:19.695Z,41.63
2023-04-15T01:17:18.713Z,41.83
2023-04-15T01:18:19.714Z,41.59
2023-04-15T01:19:18.758Z,41.65
2023-04-15T01:20:19.813Z,41.71
2023-04-15T01:21:19.837Z,41.63
2023-04-15T01:22:19.826Z,41.56
2023-04-15T01:23:19.831Z,41.58
2023-04-15T01:24:18.862Z,41.56
2023-04-15T01:25:19.900Z,41.64
2023-04-15T01:26:19.906Z,41.69
2023-04-15T01:27:18.936Z,41.63
2023-04-15T01:28:18.955Z,41.60
2023-04-15T01:29:18.951Z,41.56
2023-04-15T01:30:19.999Z,41.60
2023-04-15T01:31:20.053Z,41.56
2023-04-15T01:32:20.091Z,41.66
2023-04-15T01:33:19.111Z,41.55
2023-04-15T01:34:20.123Z,41.57
2023-04-15T01:35:20.116Z,41.53
2023-04-15T01:36:20.175Z,41.53
2023-04-15T01:37:20.154Z,41.50
2023-04-15T01:38:20.191Z,41.50
2023-04-15T01:39:20.228Z,41.52
2023-04-15T01:40:20.242Z,41.56
2023-04-15T01:41:19.249Z,41.50
2023-04-15T01:42:20.282Z,41.52
2023-04-15T01:43:20.346Z,41.52
2023-04-15T01:44:19.326Z,41.62
2023-04-15T01:45:20.362Z,41.50
2023-04-15T01:46:20.924Z,41.64
2023-04-15T01:47:20.469Z,41.57
2023-04-15T01:48:20.463Z,41.51
2023-04-15T01:49:19.479Z,41.52
2023-04-15T01:50:20.505Z,41.51
2023-04-15T01:51:19.535Z,41.52
2023-04-15T01:52:20.601Z,41.45
2023-04-15T01:53:20.605Z,41.58
2023-04-15T01:54:19.629Z,41.49
2023-04-15T01:55:20.654Z,41.50
2023-04-15T01:56:19.681Z,41.58
2023-04-15T01:57:19.734Z,41.63
2023-04-15T01:58:19.761Z,41.54
2023-04-15T01:59:19.783Z,41.50
2023-04-15T02:00:20.797Z,41.45
2023-04-15T02:01:20.981Z,41.45
2023-04-15T02:02:20.972Z,41.46
2023-04-15T02:03:20.994Z,41.36
2023-04-15T02:04:20.952Z,41.39
2023-04-15T02:05:20.975Z,41.53
2023-04-15T02:06:20.984Z,41.45
2023-04-15T02:07:20.016Z,41.42
2023-04-15T02:08:20.077Z,41.37
2023-04-15T02:09:21.101Z,41.37
2023-04-15T02:10:20.116Z,41.28
2023-04-15T02:11:21.152Z,41.37
2023-04-15T02:12:20.167Z,41.33
2023-04-15T02:13:21.196Z,41.31
2023-04-15T02:14:21.252Z,41.38
2023-04-15T02:15:21.274Z,41.52
2023-04-15T02:16:21.556Z,41.40
2023-04-15T02:17:21.395Z,41.39
2023-04-15T02:18:20.371Z,41.36
2023-04-15T02:19:21.421Z,41.29
2023-04-15T02:20:20.468Z,41.39
2023-04-15T02:21:21.483Z,41.40
2023-04-15T02:22:21.551Z,41.31
2023-04-15T02:23:21.572Z,41.40
2023-04-15T02:24:21.644Z,41.30
2023-04-15T02:25:21.661Z,41.36
2023-04-15T02:26:21.691Z,41.36
2023-04-15T02:27:20.738Z,41.40
2023-04-15T02:28:21.965Z,41.36
2023-04-15T02:29:20.832Z,41.28
2023-04-15T02:30:20.841Z,41.35
2023-04-15T02:31:21.962Z,41.38
2023-04-15T02:32:22.046Z,41.39
2023-04-15T02:33:20.932Z,41.49
2023-04-15T02:34:21.974Z,41.37
2023-04-15T02:35:22.032Z,41.37
2023-04-15T02:36:22.036Z,41.33
2023-04-15T02:37:22.868Z,41.33
2023-04-15T02:38:22.088Z,41.40
2023-04-15T02:39:21.162Z,41.29
2023-04-15T02:40:22.214Z,41.32
2023-04-15T02:41:21.182Z,41.27
2023-04-15T02:42:22.216Z,41.40
2023-04-15T02:43:21.270Z,41.30
2023-04-15T02:44:22.280Z,41.28
2023-04-15T02:45:21.281Z,41.27
2023-04-15T02:46:21.349Z,41.21
2023-04-15T02:47:22.369Z,41.20
2023-04-15T02:48:22.395Z,41.26
2023-04-15T02:49:22.437Z,41.25
2023-04-15T02:50:21.453Z,41.27
2023-04-15T02:51:22.495Z,41.35
2023-04-15T02:52:21.503Z,41.21
2023-04-15T02:53:21.554Z,41.25
2023-04-15T02:54:22.571Z,41.21
2023-04-15T02:55:22.596Z,41.24
2023-04-15T02:56:21.646Z,41.28
2023-04-15T02:57:22.674Z,41.15
2023-04-15T02:58:21.695Z,41.23
2023-04-15T02:59:22.728Z,41.15
2023-04-15T03:00:21.783Z,41.20
2023-04-15T03:01:22.814Z,41.19
2023-04-15T03:02:23.100Z,41.22
2023-04-15T03:03:22.943Z,41.25
2023-04-15T03:04:22.026Z,41.22
2023-04-15T03:05:21.904Z,41.16
2023-04-15T03:06:22.945Z,41.21
2023-04-15T03:07:21.974Z,41.14
2023-04-15T03:08:21.997Z,41.11
2023-04-15T03:09:22.048Z,41.17
2023-04-15T03:10:22.084Z,41.31
2023-04-15T03:11:23.134Z,41.21
2023-04-15T03:12:22.146Z,41.17
2023-04-15T03:13:23.185Z,41.21
2023-04-15T03:14:22.213Z,41.17
2023-04-15T03:15:23.243Z,41.15
2023-04-15T03:16:22.334Z,41.05
2023-04-15T03:17:23.346Z,41.08
2023-04-15T03:18:22.365Z,41.11
2023-04-15T03:19:22.388Z,41.16
2023-04-15T03:20:23.512Z,41.15
2023-04-15T03:21:23.456Z,41.09
2023-04-15T03:22:22.485Z,41.11
2023-04-15T03:23:23.518Z,41.03
2023-04-15T03:24:22.564Z,41.20
2023-04-15T03:25:23.589Z,41.16
2023-04-15T03:26:23.612Z,41.13
2023-04-15T03:27:22.677Z,41.11
2023-04-15T03:28:23.696Z,41.15
2023-04-15T03:29:22.737Z,41.07
2023-04-15T03:30:23.765Z,41.11
2023-04-15T03:31:23.808Z,41.11
2023-04-15T03:32:23.859Z,41.13
2023-04-15T03:33:22.870Z,41.16
2023-04-15T03:34:23.889Z,41.13
2023-04-15T03:35:23.911Z,41.22
2023-04-15T03:36:23.988Z,41.13
2023-04-15T03:37:24.000Z,41.14
2023-04-15T03:38:23.041Z,41.03
2023-04-15T03:39:23.094Z,41.04
2023-04-15T03:40:24.125Z,41.08
2023-04-15T03:41:23.146Z,41.03
2023-04-15T03:42:23.210Z,41.09
2023-04-15T03:43:23.257Z,41.09
2023-04-15T03:44:24.294Z,41.08
2023-04-15T03:45:24.337Z,41.06
2023-04-15T03:46:24.444Z,41.09
2023-04-15T03:47:24.456Z,41.10
2023-04-15T03:48:24.626Z,41.06
2023-04-15T03:49:24.506Z,40.99
2023-04-15T03:50:23.545Z,40.98
2023-04-15T03:51:23.589Z,41.02
2023-04-15T03:52:24.639Z,41.04
2023-04-15T03:53:23.691Z,40.99
2023-04-15T03:54:24.723Z,40.96
2023-04-15T03:55:23.766Z,41.04
2023-04-15T03:56:23.799Z,40.95
2023-04-15T03:57:23.831Z,41.05
2023-04-15T03:58:23.884Z,41.08
2023-04-15T03:59:24.935Z,41.01
2023-04-15T04:00:24.978Z,41.02
2023-04-15T04:01:25.007Z,41.05
2023-04-15T04:02:24.221Z,41.03
2023-04-15T04:03:25.387Z,40.98
2023-04-15T04:04:25.202Z,41.03
2023-04-15T04:05:24.160Z,40.97
2023-04-15T04:06:25.207Z,40.96
2023-04-15T04:07:25.255Z,40.92
2023-04-15T04:08:25.311Z,41.02
2023-04-15T04:09:25.356Z,40.97
2023-04-15T04:10:24.384Z,41.02
2023-04-15T04:11:24.425Z,40.96
2023-04-15T04:12:25.463Z,40.95
2023-04-15T04:13:25.520Z,41.02
2023-04-15T04:14:25.518Z,41.02
2023-04-15T04:15:24.580Z,40.93
2023-04-15T04:16:24.725Z,40.95
2023-04-15T04:17:24.695Z,40.99
2023-04-15T04:18:25.730Z,40.94
2023-04-15T04:19:25.701Z,40.91
2023-04-15T04:20:25.744Z,40.92
2023-04-15T04:21:25.808Z,40.99
2023-04-15T04:22:25.835Z,40.87
2023-04-15T04:23:24.905Z,40.94
2023-04-15T04:24:24.927Z,40.88
2023-04-15T04:25:25.974Z,40.87
2023-04-15T04:26:26.030Z,40.93
2023-04-15T04:27:26.063Z,40.97
2023-04-15T04:28:26.111Z,40.98
2023-04-15T04:29:25.131Z,40.98
2023-04-15T04:30:25.185Z,40.95
2023-04-15T04:31:25.329Z,40.88
2023-04-15T04:32:25.310Z,40.92
2023-04-15T04:33:26.338Z,40.89
2023-04-15T04:34:25.382Z,40.85
2023-04-15T04:35:26.438Z,40.85
2023-04-15T04:36:25.594Z,40.95
2023-04-15T04:37:25.544Z,40.81
2023-04-15T04:38:25.629Z,40.86
2023-04-15T04:39:26.638Z,40.92
2023-04-15T04:40:25.800Z,40.83
2023-04-15T04:41:26.860Z,40.78
2023-04-15T04:42:25.849Z,40.84
2023-04-15T04:43:26.829Z,40.86
2023-04-15T04:44:26.848Z,40.79
2023-04-15T04:45:26.900Z,40.85
2023-04-15T04:46:26.940Z,40.95
2023-04-15T04:47:26.041Z,40.88
2023-04-15T04:48:26.029Z,40.90
2023-04-15T04:49:27.083Z,40.90
2023-04-15T04:50:27.101Z,40.84
2023-04-15T04:51:27.145Z,40.82
2023-04-15T04:52:27.185Z,40.89
2023-04-15T04:53:26.239Z,40.81
2023-04-15T04:54:27.284Z,40.80
2023-04-15T04:55:28.003Z,40.83
2023-04-15T04:56:27.423Z,40.84
2023-04-15T04:57:27.415Z,40.84
2023-04-15T04:58:27.496Z,40.79
2023-04-15T04:59:26.568Z,40.84
2023-04-15T05:00:26.589Z,40.80
2023-04-15T05:01:27.689Z,40.79
2023-04-15T05:02:28.120Z,40.80
2023-04-15T05:03:27.886Z,40.90
2023-04-15T05:04:27.776Z,40.83
2023-04-15T05:05:26.831Z,40.79
2023-04-15T05:06:27.864Z,40.81
2023-04-15T05:07:27.925Z,40.75
2023-04-15T05:08:28.006Z,40.81
2023-04-15T05:09:27.988Z,40.85
2023-04-15T05:10:27.061Z,40.81
2023-04-15T05:11:27.095Z,40.77
2023-04-15T05:12:28.140Z,40.80
2023-04-15T05:13:27.173Z,40.81
2023-04-15T05:14:28.238Z,40.82
2023-04-15T05:15:27.285Z,40.79
2023-04-15T05:16:28.324Z,40.82
2023-04-15T05:17:28.404Z,40.75
2023-04-15T05:18:27.392Z,40.79
2023-04-15T05:19:27.471Z,40.76
2023-04-15T05:20:28.481Z,40.80
2023-04-15T05:21:27.525Z,40.67
2023-04-15T05:22:28.585Z,40.81
2023-04-15T05:23:27.669Z,40.71
2023-04-15T05:24:27.698Z,40.77
2023-04-15T05:25:27.760Z,40.78
2023-04-15T05:26:28.821Z,40.77
2023-04-15T05:27:28.838Z,40.70
2023-04-15T05:28:27.903Z,40.76
2023-04-15T05:29:27.945Z,40.75
2023-04-15T05:30:28.008Z,40.68
2023-04-15T05:31:29.135Z,40.76
2023-04-15T05:32:28.121Z,40.76
2023-04-15T05:33:28.127Z,40.68
2023-04-15T05:34:28.180Z,40.73
2023-04-15T05:35:29.214Z,40.81
2023-04-15T05:36:29.254Z,40.73
2023-04-15T05:37:28.292Z,40.73
2023-04-15T05:38:29.343Z,40.72
2023-04-15T05:39:28.422Z,40.67
2023-04-15T05:40:28.446Z,40.68
2023-04-15T05:41:29.515Z,40.65
2023-04-15T05:42:28.545Z,40.66
2023-04-15T05:43:29.648Z,40.65
2023-04-15T05:44:28.645Z,40.67
2023-04-15T05:45:29.696Z,40.66
2023-04-15T05:46:29.826Z,40.72
2023-04-15T05:47:29.813Z,40.63
2023-04-15T05:48:28.844Z,40.65
2023-04-15T05:49:29.896Z,40.67
2023-04-15T05:50:28.982Z,40.68
2023-04-15T05:51:28.999Z,40.67
2023-04-15T05:52:30.060Z,40.70
2023-04-15T05:53:29.090Z,40.63
2023-04-15T05:54:30.139Z,40.61
2023-04-15T05:55:29.201Z,40.62
2023-04-15T05:56:30.244Z,40.67
2023-04-15T05:57:30.280Z,40.57
2023-04-15T05:58:30.349Z,40.73
2023-04-15T05:59:30.378Z,40.65
2023-04-15T06:00:29.448Z,40.58
2023-04-15T06:01:30.499Z,40.58
2023-04-15T06:02:29.583Z,40.62
2023-04-15T06:03:30.746Z,40.63
2023-04-15T06:04:29.799Z,40.72
2023-04-15T06:05:30.681Z,40.68
2023-04-15T06:06:29.735Z,40.66
2023-04-15T06:07:30.850Z,40.66
2023-04-15T06:08:29.846Z,40.69
2023-04-15T06:09:29.887Z,40.57
2023-04-15T06:10:30.930Z,40.57
2023-04-15T06:11:30.970Z,40.57
2023-04-15T06:12:30.037Z,40.58
2023-04-15T06:13:31.065Z,40.57
2023-04-15T06:14:31.122Z,40.61
2023-04-15T06:15:31.194Z,40.58
2023-04-15T06:16:30.267Z,40.59
2023-04-15T06:17:30.284Z,40.53
2023-04-15T06:18:31.319Z,40.53
2023-04-15T06:19:31.355Z,40.57
2023-04-15T06:20:31.413Z,40.50
2023-04-15T06:21:31.502Z,40.48
2023-04-15T06:22:31.533Z,40.54
2023-04-15T06:23:30.593Z,40.58
2023-04-15T06:24:31.622Z,40.62
2023-04-15T06:25:30.660Z,40.57
2023-04-15T06:26:31.704Z,40.58
2023-04-15T06:27:31.767Z,40.52
2023-04-15T06:28:31.819Z,40.45
2023-04-15T06:29:31.883Z,40.40
2023-04-15T06:30:31.923Z,40.50
2023-04-15T06:31:31.024Z,40.44
2023-04-15T06:32:32.051Z,40.44
2023-04-15T06:33:31.102Z,40.47
2023-04-15T06:34:31.151Z,40.45
2023-04-15T06:35:32.213Z,40.39
2023-04-15T06:36:32.236Z,40.41
2023-04-15T06:37:32.299Z,40.49
2023-04-15T06:38:31.347Z,40.44
2023-04-15T06:39:32.464Z,40.46
2023-04-15T06:40:32.466Z,40.45
2023-04-15T06:41:32.505Z,40.41
2023-04-15T06:42:31.559Z,40.49
2023-04-15T06:43:31.609Z,40.40
2023-04-15T06:44:33.921Z,40.46
2023-04-15T06:45:31.728Z,40.41
2023-04-15T06:46:32.786Z,40.45
2023-04-15T06:47:32.833Z,40.41
2023-04-15T06:48:32.887Z,40.45
2023-04-15T06:49:32.956Z,40.43
2023-04-15T06:50:32.007Z,40.49
2023-04-15T06:51:33.037Z,40.48
2023-04-15T06:52:33.093Z,40.38
2023-04-15T06:53:33.165Z,40.40
2023-04-15T06:54:33.224Z,40.38
2023-04-15T06:55:33.267Z,40.30
2023-04-15T06:56:32.302Z,40.31
2023-04-15T06:57:33.832Z,40.36
2023-04-15T06:58:33.578Z,40.37
2023-04-15T06:59:33.662Z,40.28
2023-04-15T07:00:33.698Z,40.30
2023-04-15T07:01:33.756Z,40.29
2023-04-15T07:02:33.985Z,40.34
2023-04-15T07:03:33.837Z,40.36
2023-04-15T07:04:34.042Z,40.28
2023-04-15T07:05:32.922Z,40.31
2023-04-15T07:06:33.974Z,40.29
2023-04-15T07:07:34.036Z,40.29
2023-04-15T07:08:33.099Z,40.26
2023-04-15T07:09:33.122Z,40.23
2023-04-15T07:10:33.177Z,40.28
2023-04-15T07:11:33.247Z,40.32
2023-04-15T07:12:33.281Z,40.23
2023-04-15T07:13:33.334Z,40.29
2023-04-15T07:14:34.403Z,40.27
2023-04-15T07:15:33.453Z,40.31
2023-04-15T07:16:34.500Z,40.20
2023-04-15T07:17:34.555Z,40.23
2023-04-15T07:18:34.560Z,40.19
2023-04-15T07:19:34.668Z,40.14
2023-04-15T07:20:34.670Z,40.18
2023-04-15T07:21:34.723Z,40.18
2023-04-15T07:22:33.761Z,40.17
2023-04-15T07:23:33.791Z,40.19
2023-04-15T07:24:34.828Z,40.20
2023-04-15T07:25:33.963Z,40.23
2023-04-15T07:26:34.949Z,40.22
2023-04-15T07:27:34.978Z,40.18
2023-04-15T07:28:35.031Z,40.21
2023-04-15T07:29:35.253Z,40.19
2023-04-15T07:30:35.263Z,40.20
2023-04-15T07:31:35.199Z,40.19
2023-04-15T07:32:35.252Z,40.17
2023-04-15T07:33:35.263Z,40.15
2023-04-15T07:34:34.304Z,40.12
2023-04-15T07:35:35.357Z,40.15
2023-04-15T07:36:34.408Z,40.12
2023-04-15T07:37:35.447Z,40.14
2023-04-15T07:38:35.614Z,40.18
2023-04-15T07:39:35.528Z,40.18
2023-04-15T07:40:35.609Z,40.14
2023-04-15T07:41:34.601Z,40.15
2023-04-15T07:42:35.689Z,40.22
2023-04-15T07:43:35.786Z,40.19
2023-04-15T07:44:35.767Z,40.19
2023-04-15T07:45:35.831Z,40.14
2023-04-15T07:46:35.951Z,40.19
2023-04-15T07:47:35.965Z,40.18
2023-04-15T07:48:36.254Z,40.18
2023-04-15T07:49:35.996Z,40.17
2023-04-15T07:50:36.065Z,40.15
2023-04-15T07:51:36.085Z,40.19
2023-04-15T07:52:36.123Z,40.19
2023-04-15T07:53:35.176Z,40.21
2023-04-15T07:54:35.202Z,40.23
2023-04-15T07:55:36.262Z,40.21
2023-04-15T07:56:36.291Z,40.14
2023-04-15T07:57:35.328Z,40.15
2023-04-15T07:58:36.394Z,40.21
2023-04-15T07:59:36.410Z,40.21
2023-04-15T08:00:36.488Z,40.21
2023-04-15T08:01:36.499Z,40.23
2023-04-15T08:02:38.166Z,40.19
2023-04-15T08:03:36.688Z,40.19
2023-04-15T08:04:36.762Z,40.21
2023-04-15T08:05:36.529Z,40.23
2023-04-15T08:06:36.522Z,40.22
2023-04-15T08:07:35.517Z,40.20
2023-04-15T08:08:36.507Z,40.19
2023-04-15T08:09:36.510Z,40.25
2023-04-15T08:10:36.485Z,40.28
2023-04-15T08:11:36.485Z,40.22
2023-04-15T08:12:36.460Z,40.25
2023-04-15T08:13:36.466Z,40.19
2023-04-15T08:14:36.478Z,40.23
2023-04-15T08:15:36.482Z,40.23
2023-04-15T08:16:36.501Z,40.25
2023-04-15T08:17:36.469Z,40.22
2023-04-15T08:18:36.413Z,40.22
2023-04-15T08:19:36.418Z,40.21
2023-04-15T08:20:35.516Z,40.25
2023-04-15T08:21:36.417Z,40.25
2023-04-15T08:22:36.410Z,40.23
2023-04-15T08:23:36.394Z,40.22
2023-04-15T08:24:35.442Z,40.25
2023-04-15T08:25:36.374Z,40.32
2023-04-15T08:26:36.374Z,40.30
2023-04-15T08:27:36.366Z,40.29
2023-04-15T08:28:35.447Z,40.30
2023-04-15T08:29:36.456Z,40.28
2023-04-15T08:30:36.522Z,40.28
2023-04-15T08:31:36.519Z,40.27
2023-04-15T08:32:36.535Z,40.26
2023-04-15T08:33:35.565Z,40.26
2023-04-15T08:34:36.600Z,40.25
2023-04-15T08:35:35.632Z,40.31
2023-04-15T08:36:36.717Z,40.25
2023-04-15T08:37:35.724Z,40.30
2023-04-15T08:38:35.770Z,40.24
2023-04-15T08:39:35.834Z,40.27
2023-04-15T08:40:36.893Z,40.27
2023-04-15T08:41:36.968Z,40.17
2023-04-15T08:42:36.968Z,40.23
2023-04-15T08:43:37.028Z,40.25
2023-04-15T08:44:37.061Z,40.25
2023-04-15T08:45:37.118Z,40.22
2023-04-15T08:46:37.267Z,40.27
2023-04-15T08:47:37.228Z,40.24
2023-04-15T08:48:37.245Z,40.25
2023-04-15T08:49:37.291Z,40.24
2023-04-15T08:50:37.337Z,40.23
2023-04-15T08:51:36.370Z,40.18
2023-04-15T08:52:36.431Z,40.21
2023-04-15T08:53:37.452Z,40.23
2023-04-15T08:54:37.496Z,40.19
2023-04-15T08:55:37.565Z,40.21
2023-04-15T08:56:37.650Z,40.25
2023-04-15T08:57:37.659Z,40.28
2023-04-15T08:58:37.687Z,40.25
2023-04-15T08:59:37.717Z,40.26
2023-04-15T09:00:37.774Z,40.21
2023-04-15T09:01:36.868Z,40.28
2023-04-15T09:02:38.047Z,40.26
2023-04-15T09:03:37.090Z,40.22
2023-04-15T09:04:36.939Z,40.22
2023-04-15T09:05:37.978Z,40.21
2023-04-15T09:06:38.126Z,40.21
2023-04-15T09:07:37.055Z,40.25
2023-04-15T09:08:38.096Z,40.22
2023-04-15T09:09:37.139Z,40.28
2023-04-15T09:10:38.178Z,40.23
2023-04-15T09:11:38.239Z,40.23
2023-04-15T09:12:38.312Z,40.18
2023-04-15T09:13:38.314Z,40.22
2023-04-15T09:14:38.348Z,40.15
2023-04-15T09:15:38.401Z,40.22
2023-04-15T09:16:38.479Z,40.16
2023-04-15T09:17:38.517Z,40.23
2023-04-15T09:18:38.594Z,40.14
2023-04-15T09:19:37.578Z,40.23
2023-04-15T09:20:38.634Z,40.21
2023-04-15T09:21:37.662Z,40.17
2023-04-15T09:22:38.727Z,40.22
2023-04-15T09:23:37.779Z,40.22
2023-04-15T09:24:37.789Z,40.18
2023-04-15T09:25:38.812Z,40.17
2023-04-15T09:26:38.865Z,40.08
2023-04-15T09:27:38.900Z,40.11
2023-04-15T09:28:38.950Z,40.14
2023-04-15T09:29:37.973Z,40.13
2023-04-15T09:30:39.054Z,40.20
2023-04-15T09:31:38.059Z,40.15
2023-04-15T09:32:39.167Z,40.11
2023-04-15T09:33:39.149Z,40.09
2023-04-15T09:34:39.231Z,40.08
2023-04-15T09:35:39.271Z,40.12
2023-04-15T09:36:39.521Z,40.06
2023-04-15T09:37:38.347Z,40.16
2023-04-15T09:38:39.384Z,40.14
2023-04-15T09:39:38.407Z,40.16
2023-04-15T09:40:39.445Z,40.11
2023-04-15T09:41:38.496Z,40.14
2023-04-15T09:42:39.530Z,40.13
2023-04-15T09:43:38.591Z,40.14
2023-04-15T09:44:38.679Z,40.18
2023-04-15T09:45:39.663Z,40.15
2023-04-15T09:46:39.719Z,40.14
2023-04-15T09:47:39.772Z,40.16
2023-04-15T09:48:38.794Z,40.14
2023-04-15T09:49:39.908Z,40.14
2023-04-15T09:50:39.917Z,40.18
2023-04-15T09:51:39.939Z,40.15
2023-04-15T09:52:40.490Z,40.14
2023-04-15T09:53:40.015Z,40.16
2023-04-15T09:54:39.090Z,40.14
2023-04-15T09:55:39.105Z,40.12
2023-04-15T09:56:40.155Z,40.16
2023-04-15T09:57:39.207Z,40.11
2023-04-15T09:58:40.247Z,40.17
2023-04-15T09:59:40.279Z,40.15
2023-04-15T10:00:40.317Z,40.12
2023-04-15T10:01:39.423Z,40.08
2023-04-15T10:02:40.494Z,40.06
2023-04-15T10:03:40.513Z,40.07
2023-04-15T10:04:40.517Z,40.17
2023-04-15T10:05:40.534Z,40.06
2023-04-15T10:06:39.610Z,40.09
2023-04-15T10:07:40.668Z,39.98
2023-04-15T10:08:39.657Z,39.98
2023-04-15T10:09:40.688Z,39.90
2023-04-15T10:10:40.731Z,39.96
2023-04-15T10:11:40.771Z,39.96
2023-04-15T10:12:39.814Z,39.97
2023-04-15T10:13:39.849Z,39.91
2023-04-15T10:14:40.962Z,39.99
2023-04-15T10:15:39.949Z,40.02
2023-04-15T10:16:40.974Z,39.90
2023-04-15T10:17:41.020Z,39.92
2023-04-15T10:18:41.069Z,39.90
2023-04-15T10:19:41.089Z,39.90
2023-04-15T10:20:40.130Z,39.90
2023-04-15T10:21:41.185Z,39.96
2023-04-15T10:22:41.237Z,39.95
2023-04-15T10:23:41.253Z,39.97
2023-04-15T10:24:41.292Z,39.86
2023-04-15T10:25:41.325Z,39.97
2023-04-15T10:26:41.376Z,39.96
2023-04-15T10:27:41.434Z,39.95
2023-04-15T10:28:41.461Z,39.88
2023-04-15T10:29:41.497Z,39.93
2023-04-15T10:30:41.524Z,39.94
2023-04-15T10:31:41.628Z,40.03
2023-04-15T10:32:41.679Z,39.96
2023-04-15T10:33:41.699Z,39.95
2023-04-15T10:34:41.699Z,39.95
2023-04-15T10:35:41.737Z,39.92
2023-04-15T10:36:41.773Z,40.01
2023-04-15T10:37:41.868Z,40.05
2023-04-15T10:38:41.885Z,39.90
2023-04-15T10:39:41.953Z,39.92
2023-04-15T10:40:41.974Z,39.92
2023-04-15T10:41:41.014Z,39.97
2023-04-15T10:42:42.030Z,39.98
2023-04-15T10:43:41.062Z,39.87
2023-04-15T10:44:42.153Z,39.94
2023-04-15T10:45:42.143Z,39.98
2023-04-15T10:46:42.244Z,39.96
2023-04-15T10:47:42.531Z,40.04
2023-04-15T10:48:41.304Z,40.02
2023-04-15T10:49:42.364Z,40.06
2023-04-15T10:50:42.399Z,40.08
2023-04-15T10:51:41.429Z,40.11
2023-04-15T10:52:42.486Z,39.99
2023-04-15T10:53:42.506Z,40.02
2023-04-15T10:54:41.567Z,40.01
2023-04-15T10:55:42.601Z,39.95
2023-04-15T10:56:41.646Z,39.94
2023-04-15T10:57:42.696Z,39.90
2023-04-15T10:58:42.743Z,39.90
2023-04-15T10:59:41.757Z,39.99
2023-04-15T11:00:41.809Z,39.93
2023-04-15T11:01:42.926Z,39.89
2023-04-15T11:02:43.060Z,39.88
2023-04-15T11:03:43.151Z,39.92
2023-04-15T11:04:43.158Z,39.87
2023-04-15T11:05:42.071Z,39.93
2023-04-15T11:06:42.090Z,39.88
2023-04-15T11:07:43.126Z,40.05
2023-04-15T11:08:42.163Z,39.89
2023-04-15T11:09:42.211Z,39.88
2023-04-15T11:10:43.291Z,39.94
2023-04-15T11:11:44.887Z,39.96
2023-04-15T11:12:43.480Z,40.02
2023-04-15T11:13:43.492Z,39.93
2023-04-15T11:14:43.546Z,40.02
2023-04-15T11:15:43.590Z,39.99
2023-04-15T11:16:42.651Z,39.89
2023-04-15T11:17:43.644Z,39.96
2023-04-15T11:18:43.837Z,39.86
2023-04-15T11:19:43.874Z,39.90
2023-04-15T11:20:43.904Z,39.96
2023-04-15T11:21:43.944Z,39.96
2023-04-15T11:22:44.020Z,39.84
2023-04-15T11:23:44.036Z,39.90
2023-04-15T11:24:44.100Z,39.89
2023-04-15T11:25:43.382Z,39.91
2023-04-15T11:26:44.206Z,39.89
2023-04-15T11:27:44.265Z,39.88
2023-04-15T11:28:44.282Z,39.77
2023-04-15T11:29:44.337Z,39.75
2023-04-15T11:30:43.392Z,39.78
2023-04-15T11:31:43.486Z,39.78
2023-04-15T11:32:43.525Z,39.75
2023-04-15T11:33:44.540Z,39.75
2023-04-15T11:34:44.556Z,39.77
2023-04-15T11:35:43.644Z,39.79
2023-04-15T11:36:44.663Z,39.89
2023-04-15T11:37:44.698Z,39.90
2023-04-15T11:38:44.783Z,39.83
2023-04-15T11:39:44.785Z,39.98
2023-04-15T11:40:46.813Z,39.93
2023-04-15T11:41:43.914Z,39.91
2023-04-15T11:42:50.029Z,39.87
2023-04-15T11:43:44.832Z,39.90
2023-04-15T11:44:44.847Z,39.88
2023-04-15T11:45:43.811Z,39.81
2023-04-15T11:46:45.626Z,39.80
2023-04-15T11:47:44.830Z,39.79
2023-04-15T11:48:43.792Z,39.78
2023-04-15T11:49:44.776Z,39.80
2023-04-15T11:50:44.762Z,39.81
2023-04-15T11:51:43.789Z,39.92
2023-04-15T11:52:44.786Z,39.88
2023-04-15T11:53:44.806Z,39.87
2023-04-15T11:54:43.749Z,39.87
2023-04-15T11:55:44.747Z,39.87
2023-04-15T11:56:44.802Z,39.90
2023-04-15T11:57:44.846Z,39.87
2023-04-15T11:58:45.008Z,39.91
2023-04-15T11:59:46.003Z,39.90
2023-04-15T12:00:44.995Z,39.92
2023-04-15T12:01:45.040Z,39.89
2023-04-15T12:02:44.267Z,39.85
2023-04-15T12:03:45.354Z,39.87
2023-04-15T12:04:44.333Z,39.80
2023-04-15T12:05:45.274Z,39.86
2023-04-15T12:06:45.298Z,39.83
2023-04-15T12:07:44.348Z,39.83
2023-04-15T12:08:44.415Z,39.94
2023-04-15T12:09:45.465Z,39.84
2023-04-15T12:10:45.529Z,39.76
2023-04-15T12:11:45.615Z,39.82
2023-04-15T12:12:44.613Z,39.81
2023-04-15T12:13:44.683Z,39.81
2023-04-15T12:14:45.774Z,39.80
2023-04-15T12:15:44.846Z,39.70
2023-04-15T12:16:47.957Z,39.73
2023-04-15T12:17:50.944Z,39.82
2023-04-15T12:18:45.953Z,39.80
2023-04-15T12:19:45.822Z,39.76
2023-04-15T12:20:45.823Z,39.78
2023-04-15T12:21:45.818Z,39.79
2023-04-15T12:22:44.805Z,39.74
2023-04-15T12:23:45.801Z,39.80
2023-04-15T12:24:45.800Z,39.79
2023-04-15T12:25:45.783Z,39.74
2023-04-15T12:26:44.791Z,39.76
2023-04-15T12:27:45.771Z,39.80
2023-04-15T12:28:45.797Z,39.74
2023-04-15T12:29:44.787Z,39.86
2023-04-15T12:30:45.766Z,39.81
2023-04-15T12:31:44.857Z,39.85
2023-04-15T12:32:45.849Z,39.80
2023-04-15T12:33:45.744Z,39.76
2023-04-15T12:34:45.722Z,39.80
2023-04-15T12:35:44.722Z,39.80
2023-04-15T12:36:45.791Z,39.77
2023-04-15T12:37:45.704Z,39.72
2023-04-15T12:38:45.742Z,39.76
2023-04-15T12:39:44.800Z,39.85
2023-04-15T12:40:45.730Z,39.79
2023-04-15T12:41:45.707Z,39.87
2023-04-15T12:42:44.677Z,39.89
2023-04-15T12:43:45.666Z,39.80
2023-04-15T12:44:45.731Z,39.74
2023-04-15T12:45:45.749Z,39.74
2023-04-15T12:46:44.897Z,39.67
2023-04-15T12:47:44.915Z,39.71
2023-04-15T12:48:45.912Z,39.69
2023-04-15T12:49:45.977Z,39.80
2023-04-15T12:50:46.019Z,39.87
2023-04-15T12:51:46.088Z,39.74
2023-04-15T12:52:46.141Z,39.76